Time;durP1;ratioP1;P1;durP2;ratioP2;P2;SDS_P1;SDS_P2;PMS_P1;PMS_P2;Temp;Humidity;BMP_temperature;BMP_pressure;BME280_temperature;BME280_humidity;BME280_pressure;Samples;Min_cycle;Max_cycle;Signal;HPM_P1;HPM_P2
2022/09/09 00:00:18;;;;;;;7.60;3.30;;;;;;;12.58;100.00;100672.75;5094213;28;20016;-42
2022/09/09 00:03:08;;;;;;;6.30;3.15;;;;;;;12.56;100.00;100668.41;5095271;28;20093;-43
2022/09/09 00:05:51;;;;;;;8.25;3.47;;;;;;;12.54;100.00;100672.66;5094587;28;20043;-44
2022/09/09 00:08:24;;;;;;;6.25;2.97;;;;;;;12.53;100.00;100671.81;5093895;28;20031;-42
2022/09/09 00:10:58;;;;;;;5.13;3.30;;;;;;;12.47;100.00;100672.56;5095103;28;20031;-44
2022/09/09 00:13:46;;;;;;;6.70;3.55;;;;;;;12.47;100.00;100667.41;5094833;28;20078;-44
2022/09/09 00:16:17;;;;;;;6.47;3.78;;;;;;;12.45;100.00;100665.63;5093859;28;20107;-46
2022/09/09 00:19:07;;;;;;;5.80;3.30;;;;;;;12.45;100.00;100669.06;5094759;28;20533;-45
2022/09/09 00:21:35;;;;;;;7.45;3.80;;;;;;;12.41;100.00;100659.53;5093929;28;20475;-43
2022/09/09 00:24:01;;;;;;;;;;;;;;;12.47;100.00;100656.16;5095130;28;20020;-41
2022/09/09 00:26:38;;;;;;;5.23;3.27;;;;;;;12.41;100.00;100646.59;5094616;28;20401;-42
2022/09/09 00:29:12;;;;;;;6.57;3.40;;;;;;;12.39;100.00;100656.03;5093955;28;20028;-45
2022/09/09 00:31:38;;;;;;;7.15;3.33;;;;;;;12.39;100.00;100660.34;5094583;28;20103;-45
2022/09/09 00:34:21;;;;;;;6.10;3.03;;;;;;;12.39;100.00;100662.91;5094444;28;20424;-45
2022/09/09 00:36:49;;;;;;;5.20;3.20;;;;;;;12.38;100.00;100659.44;5093773;28;20027;-43
2022/09/09 00:39:39;;;;;;;6.15;3.22;;;;;;;12.38;100.00;100656.84;5094087;28;20382;-45
2022/09/09 00:42:25;;;;;;;6.07;2.63;;;;;;;12.37;100.00;100654.25;5094387;28;20095;-45
2022/09/09 00:45:01;;;;;;;4.90;2.97;;;;;;;12.33;100.00;100651.63;5094191;28;20115;-45
2022/09/09 00:47:40;;;;;;;6.00;2.80;;;;;;;12.35;100.00;100643.91;5093998;28;20386;-46
2022/09/09 00:50:17;;;;;;;5.95;3.17;;;;;;;12.38;100.00;100645.66;5093520;28;20024;-46
2022/09/09 00:52:53;;;;;;;6.15;2.80;;;;;;;12.34;100.00;100632.69;5094256;28;20081;-44
2022/09/09 00:55:33;;;;;;;7.18;3.03;;;;;;;12.35;100.00;100629.25;5093701;28;20487;-45
2022/09/09 00:57:59;;;;;;;4.82;3.03;;;;;;;12.35;100.00;100633.56;5093237;28;20031;-45
2022/09/09 01:00:35;;;;;;;7.32;2.60;;;;;;;12.32;100.00;100631.78;5093960;28;20032;-43
2022/09/09 01:03:14;;;;;;;5.78;3.08;;;;;;;12.35;100.00;100630.97;5093956;28;20024;-41
2022/09/09 01:05:42;;;;;;;6.53;2.65;;;;;;;12.34;100.00;100629.22;5095852;28;20107;-45
2022/09/09 01:08:24;;;;;;;7.18;2.88;;;;;;;12.34;100.00;100624.94;5093648;28;20426;-44
2022/09/09 01:10:54;;;;;;;6.65;3.30;;;;;;;12.37;100.00;100636.16;5093132;28;20016;-45
2022/09/09 01:13:30;;;;;;;5.80;3.00;;;;;;;12.35;100.00;100631.81;5093657;28;20512;-42
2022/09/09 01:15:59;;;;;;;6.03;3.10;;;;;;;12.36;100.00;100632.72;5093742;28;20111;-42
2022/09/09 01:18:27;;;;;;;10.65;3.10;;;;;;;12.34;100.00;100631.81;5092633;28;20051;-43
2022/09/09 01:21:37;;;;;;;6.75;3.22;;;;;;;12.34;100.00;100630.13;5093584;28;20020;-43
2022/09/09 01:24:27;;;;;;;7.07;3.25;;;;;;;12.35;100.00;100636.13;5093473;28;20032;-42
2022/09/09 01:26:57;;;;;;;7.97;3.25;;;;;;;12.31;100.00;100635.19;5092648;28;20028;-47
2022/09/09 01:29:23;;;;;;;7.90;3.17;;;;;;;12.32;100.00;100629.19;5093016;28;20039;-47
2022/09/09 01:32:00;;;;;;;8.75;3.58;;;;;;;12.32;100.00;100636.09;5092711;28;20031;-44
2022/09/09 01:34:37;;;;;;;5.37;3.03;;;;;;;12.30;100.00;100630.91;5093459;28;20032;-44
2022/09/09 01:37:06;;;;;;;8.00;3.22;;;;;;;12.30;100.00;100625.72;5093372;28;20270;-46
2022/09/09 01:39:34;;;;;;;7.32;3.08;;;;;;;12.29;100.00;100633.44;5092379;28;20016;-44
2022/09/09 01:42:01;;;;;;;6.20;3.47;;;;;;;12.31;100.00;100621.44;5093194;28;20024;-46
2022/09/09 01:44:28;;;;;;;9.90;3.47;;;;;;;12.26;100.00;100620.47;5093075;28;20044;-45
2022/09/09 01:46:53;;;;;;;8.20;3.87;;;;;;;12.29;100.00;100613.66;5092615;28;20024;-46
2022/09/09 01:49:18;;;;;;;11.80;3.63;;;;;;;12.29;100.00;100610.19;5093028;28;20126;-46
2022/09/09 01:51:48;;;;;;;8.95;4.22;;;;;;;12.29;100.00;100623.09;5093195;28;20413;-45
2022/09/09 01:54:13;;;;;;;7.55;3.67;;;;;;;12.30;100.00;100617.09;5092075;28;20421;-45
2022/09/09 01:57:19;;;;;;;9.23;3.83;;;;;;;12.25;100.00;100619.59;5093100;28;20080;-42
2022/09/09 02:00:11;;;;;;;10.27;4.10;;;;;;;12.25;100.00;100611.84;5092881;28;20051;-41
2022/09/09 02:03:00;;;;;;;10.70;4.00;;;;;;;12.28;100.00;100618.78;5092926;28;20391;-43
2022/09/09 02:05:36;;;;;;;9.43;3.75;;;;;;;12.24;100.00;100616.97;5093037;28;20028;-42
2022/09/09 02:08:23;;;;;;;7.45;3.78;;;;;;;12.26;100.00;100612.72;5092169;28;20020;-46
2022/09/09 02:11:11;;;;;;;9.02;4.00;;;;;;;12.25;100.00;100608.38;5092943;28;20535;-46
2022/09/09 02:13:38;;;;;;;10.02;4.35;;;;;;;12.23;100.00;100603.19;5092953;28;20032;-46
2022/09/09 02:16:27;;;;;;;9.93;3.80;;;;;;;12.24;100.00;100601.47;5091951;28;20064;-46
2022/09/09 02:18:57;;;;;;;9.82;3.85;;;;;;;12.18;100.00;100597.06;5097232;28;20028;-46
2022/09/09 02:21:24;;;;;;;7.32;4.20;;;;;;;12.20;100.00;100600.56;5096058;28;20023;-45
2022/09/09 02:23:51;;;;;;;11.30;5.38;;;;;;;12.19;100.00;100594.50;5097016;28;20502;-44
2022/09/09 02:26:21;;;;;;;10.65;4.78;;;;;;;12.18;100.00;100591.91;5096719;28;20459;-43
2022/09/09 02:28:49;;;;;;;11.15;4.90;;;;;;;12.18;100.00;100590.16;5096228;28;20035;-42
2022/09/09 02:31:18;;;;;;;9.40;4.55;;;;;;;12.23;100.00;100589.41;5096733;28;20028;-42
2022/09/09 02:33:49;;;;;;;11.70;5.30;;;;;;;12.24;100.00;100591.13;5096709;28;20479;-46
2022/09/09 02:36:16;;;;;;;10.77;4.60;;;;;;;12.22;100.00;100588.53;5095953;28;20038;-45
2022/09/09 02:38:50;;;;;;;12.25;4.68;;;;;;;12.22;100.00;100592.84;5096880;28;20028;-46
2022/09/09 02:41:15;;;;;;;10.05;5.10;;;;;;;12.22;100.00;100591.09;5096683;28;20020;-47
2022/09/09 02:43:40;;;;;;;11.05;5.05;;;;;;;12.21;100.00;100593.66;5095619;28;20082;-42
2022/09/09 02:46:17;;;;;;;10.65;4.88;;;;;;;12.20;100.00;100592.81;5096303;28;20028;-44
2022/09/09 02:49:08;;;;;;;11.48;4.88;;;;;;;12.17;100.00;100596.22;5096704;28;20031;-46
2022/09/09 02:51:55;;;;;;;10.63;6.07;;;;;;;12.18;100.00;100597.94;5096621;28;20024;-45
2022/09/09 02:54:31;;;;;;;11.38;5.10;;;;;;;12.16;100.00;100591.88;5096206;28;20491;-44
2022/09/09 02:57:19;;;;;;;10.80;5.13;;;;;;;12.17;100.00;100590.16;5095669;28;20046;-45
2022/09/09 02:59:46;;;;;;;9.95;5.07;;;;;;;12.10;100.00;100594.34;5096282;28;20307;-43
2022/09/09 03:02:12;;;;;;;10.13;5.23;;;;;;;12.14;100.00;100606.47;5096191;28;20027;-44
2022/09/09 03:04:38;;;;;;;12.20;5.10;;;;;;;12.14;100.00;100596.13;5095385;28;20027;-44
2022/09/09 03:07:04;;;;;;;13.05;5.70;;;;;;;12.13;100.00;100599.56;5098639;28;20055;-41
2022/09/09 03:09:30;;;;;;;13.30;5.57;;;;;;;12.14;100.00;100603.88;5096177;28;20109;-44
2022/09/09 03:11:55;;;;;;;11.50;5.53;;;;;;;12.14;100.00;100601.31;5095594;28;20106;-46
2022/09/09 03:14:24;;;;;;;13.32;5.78;;;;;;;12.13;100.00;100594.38;5095744;28;20416;-44
2022/09/09 03:16:51;;;;;;;13.85;5.47;;;;;;;12.11;100.00;100600.34;5096064;28;20028;-45
2022/09/09 03:19:16;;;;;;;12.38;4.95;;;;;;;12.12;100.00;100604.69;5095001;28;20020;-42
2022/09/09 03:21:41;;;;;;;10.05;5.22;;;;;;;12.13;100.00;100598.69;5095836;28;20024;-45
2022/09/09 03:24:07;;;;;;;13.43;5.70;;;;;;;12.14;100.00;100603.88;5095874;28;20107;-46
2022/09/09 03:26:33;;;;;;;8.85;5.00;;;;;;;12.19;100.00;100602.25;5095097;28;20441;-44
2022/09/09 03:29:00;;;;;;;14.45;5.18;;;;;;;12.18;100.00;100602.22;5094469;28;20039;-43
2022/09/09 03:31:25;;;;;;;12.50;5.22;;;;;;;12.22;100.00;100608.34;5094886;28;20028;-42
2022/09/09 03:33:51;;;;;;;13.20;5.18;;;;;;;12.23;100.00;100599.75;5095804;28;20077;-45
2022/09/09 03:36:17;;;;;;;12.35;5.72;;;;;;;12.28;100.00;100608.47;5095311;28;20081;-43
2022/09/09 03:38:42;;;;;;;13.30;5.50;;;;;;;12.27;100.00;100596.38;5095136;28;20032;-46
2022/09/09 03:41:07;;;;;;;12.70;5.45;;;;;;;12.28;100.00;100603.28;5095497;28;20028;-43
2022/09/09 03:43:33;;;;;;;11.70;5.63;;;;;;;12.33;100.00;100599.03;5095415;28;20048;-45
2022/09/09 03:45:58;;;;;;;11.50;4.95;;;;;;;12.33;100.00;100599.03;5094816;28;20024;-42
2022/09/09 03:48:25;;;;;;;11.68;4.40;;;;;;;12.31;100.00;100598.16;5095190;28;20108;-43
2022/09/09 03:50:52;;;;;;;14.07;5.50;;;;;;;12.34;100.00;100598.22;5095354;28;20460;-43
2022/09/09 03:53:20;;;;;;;10.68;4.68;;;;;;;12.28;100.00;100598.13;5094374;28;20077;-45
2022/09/09 03:55:54;;;;;;;11.60;4.80;;;;;;;12.30;100.00;100599.00;5095399;28;20046;-43
2022/09/09 03:58:20;;;;;;;10.65;4.72;;;;;;;12.33;100.00;100596.47;5095158;28;20034;-44
2022/09/09 04:01:13;;;;;;;9.88;4.75;;;;;;;12.35;100.00;100602.53;5094183;28;20028;-43
2022/09/09 04:03:38;;;;;;;12.75;4.35;;;;;;;12.35;100.00;100598.22;5093123;28;20047;-46
2022/09/09 04:06:06;;;;;;;13.32;5.18;;;;;;;12.33;100.00;100596.47;5094774;28;20020;-41
2022/09/09 04:08:31;;;;;;;;;;;;;;;12.37;100.00;100593.13;5094714;28;20032;-46
2022/09/09 04:10:57;;;;;;;11.43;4.70;;;;;;;12.37;100.00;100593.13;5095107;28;19912;-43
2022/09/09 04:13:24;;;;;;;13.45;5.38;;;;;;;12.38;100.00;100592.25;5094489;28;20452;-41
2022/09/09 04:15:54;;;;;;;13.52;5.20;;;;;;;12.40;100.00;100584.56;5094659;28;20067;-45
2022/09/09 04:18:20;;;;;;;17.95;5.22;;;;;;;12.39;100.00;100581.06;5094472;28;20024;-42
2022/09/09 04:20:50;;;;;;;10.20;5.05;;;;;;;12.38;100.00;100583.63;5094026;28;20024;-42
2022/09/09 04:23:16;;;;;;;14.13;5.20;;;;;;;12.45;100.00;100583.78;5094665;28;20058;-41
2022/09/09 04:25:49;;;;;;;13.30;5.50;;;;;;;12.46;100.00;100588.09;5094690;28;20019;-43
2022/09/09 04:28:16;;;;;;;13.57;5.18;;;;;;;12.47;100.00;100589.84;5093557;28;20060;-41
2022/09/09 04:30:41;;;;;;;12.48;4.82;;;;;;;12.47;100.00;100589.84;5094605;28;20043;-44
2022/09/09 04:33:08;;;;;;;16.30;5.13;;;;;;;12.52;100.00;100588.22;5094573;28;20372;-42
2022/09/09 04:35:33;;;;;;;11.05;4.82;;;;;;;12.52;100.00;100588.22;5093525;28;20361;-44
2022/09/09 04:37:59;;;;;;;11.18;5.38;;;;;;;12.55;100.00;100586.50;5094365;28;20483;-44
2022/09/09 04:40:25;;;;;;;11.40;5.10;;;;;;;12.51;100.00;100586.47;5093579;28;20085;-45
2022/09/09 04:42:50;;;;;;;13.63;5.82;;;;;;;12.55;100.00;100576.16;5093297;28;20479;-45
2022/09/09 04:45:16;;;;;;;12.00;5.00;;;;;;;12.55;100.00;100581.34;5094024;28;20039;-43
2022/09/09 04:47:42;;;;;;;13.10;5.43;;;;;;;12.54;100.00;100579.59;5094180;28;20107;-42
2022/09/09 04:50:08;;;;;;;12.93;4.82;;;;;;;12.53;100.00;100578.75;5093329;28;20086;-41
2022/09/09 04:52:35;;;;;;;11.98;5.55;;;;;;;12.54;100.00;100574.44;5093842;28;20074;-43
2022/09/09 04:55:01;;;;;;;15.43;5.05;;;;;;;12.54;100.00;100574.44;5093982;28;20532;-43
2022/09/09 04:57:26;;;;;;;10.40;4.85;;;;;;;12.47;100.00;100576.03;5093004;28;20111;-42
2022/09/09 04:59:51;;;;;;;14.20;5.15;;;;;;;12.51;100.00;100570.06;5093986;28;20040;-42
2022/09/09 05:02:16;;;;;;;13.60;5.00;;;;;;;12.50;100.00;100569.22;5093879;28;20035;-43
2022/09/09 05:04:42;;;;;;;13.07;4.82;;;;;;;12.51;100.00;100570.97;5093236;28;20125;-41
2022/09/09 05:07:07;;;;;;;12.75;5.32;;;;;;;12.56;100.00;100570.16;5096662;28;20020;-42
2022/09/09 05:09:33;;;;;;;15.07;5.32;;;;;;;12.58;100.00;100568.50;5093481;28;20046;-44
2022/09/09 05:11:58;;;;;;;17.65;5.32;;;;;;;12.61;100.00;100574.56;5093290;28;20016;-44
2022/09/09 05:14:23;;;;;;;13.07;5.10;;;;;;;12.67;100.00;100568.63;5093361;28;20032;-42
2022/09/09 05:16:49;;;;;;;14.38;5.07;;;;;;;12.71;100.00;100566.97;5092754;28;20078;-43
2022/09/09 05:19:15;;;;;;;11.88;5.00;;;;;;;12.70;100.00;100560.91;5093476;28;20463;-43
2022/09/09 05:21:41;;;;;;;12.55;4.35;;;;;;;12.72;100.00;100567.00;5093718;28;20065;-40
2022/09/09 05:24:07;;;;;;;15.05;5.10;;;;;;;12.72;100.00;100564.41;5092632;28;20066;-41
2022/09/09 05:26:32;;;;;;;13.27;4.55;;;;;;;12.73;100.00;100563.56;5093451;28;20023;-44
2022/09/09 05:28:58;;;;;;;11.55;4.70;;;;;;;12.72;100.00;100564.41;5093376;28;20032;-43
2022/09/09 05:31:28;;;;;;;10.45;4.85;;;;;;;12.67;100.00;100560.88;5092643;28;20024;-45
2022/09/09 05:33:54;;;;;;;12.52;4.55;;;;;;;12.73;100.00;100555.81;5093559;28;20020;-45
2022/09/09 05:36:21;;;;;;;12.50;4.82;;;;;;;12.71;100.00;100557.50;5092910;28;20375;-41
2022/09/09 05:38:46;;;;;;;15.27;4.43;;;;;;;12.73;100.00;100557.50;5092523;28;20031;-45
2022/09/09 05:41:15;;;;;;;14.25;4.93;;;;;;;12.77;100.00;100564.47;5093091;28;20028;-42
2022/09/09 05:43:42;;;;;;;15.60;4.70;;;;;;;12.79;100.00;100563.66;5093121;28;20437;-41
2022/09/09 05:46:09;;;;;;;11.82;4.60;;;;;;;12.78;100.00;100567.09;5092268;28;20440;-42
2022/09/09 05:48:39;;;;;;;17.48;4.80;;;;;;;12.81;100.00;100564.56;5093298;28;20020;-46
2022/09/09 05:51:07;;;;;;;11.60;4.68;;;;;;;12.84;100.00;100574.06;5092830;28;20063;-40
2022/09/09 05:53:34;;;;;;;14.57;5.18;;;;;;;12.90;100.00;100575.88;5091874;28;20028;-41
2022/09/09 05:56:12;;;;;;;15.80;4.93;;;;;;;12.95;100.00;100576.81;5093051;28;20032;-44
2022/09/09 05:58:38;;;;;;;12.63;4.93;;;;;;;13.00;100.00;100576.06;5093140;28;20024;-45
2022/09/09 06:01:09;;;;;;;13.15;4.63;;;;;;;13.04;100.00;100574.41;5092399;28;20054;-41
2022/09/09 06:03:36;;;;;;;15.90;4.90;;;;;;;13.07;100.00;100579.59;5092959;28;20527;-46
2022/09/09 06:06:07;;;;;;;14.95;4.40;;;;;;;13.08;100.00;100577.88;5092021;28;20024;-42
2022/09/09 06:08:36;;;;;;;13.60;4.93;;;;;;;13.10;100.00;100581.38;5092926;28;20020;-46
2022/09/09 06:11:09;;;;;;;14.48;4.80;;;;;;;13.12;100.00;100583.13;5092931;28;20020;-43
2022/09/09 06:13:36;;;;;;;15.63;4.80;;;;;;;13.20;100.00;100577.22;5092159;28;20024;-45
2022/09/09 06:16:02;;;;;;;18.90;5.20;;;;;;;13.28;100.00;100576.44;5092671;28;20028;-47
2022/09/09 06:18:27;;;;;;;12.13;4.25;;;;;;;13.33;100.00;100576.53;5092783;28;20497;-44
2022/09/09 06:20:57;;;;;;;13.75;4.60;;;;;;;13.38;100.00;100574.03;5092064;28;20436;-46
2022/09/09 06:23:23;;;;;;;14.35;4.75;;;;;;;13.44;100.00;100575.00;5092680;28;20020;-40
2022/09/09 06:25:48;;;;;;;15.27;4.90;;;;;;;13.51;100.00;100583.72;5098913;28;20085;-44
2022/09/09 06:28:15;;;;;;;15.15;4.78;;;;;;;13.59;100.00;100576.03;5100415;28;20020;-42
2022/09/09 06:30:41;;;;;;;15.30;5.00;;;;;;;13.68;100.00;100576.16;5112777;28;20031;-41
2022/09/09 06:33:06;;;;;;;17.30;4.72;;;;;;;13.77;100.00;100571.06;5112934;28;20035;-42
2022/09/09 06:35:31;;;;;;;12.65;4.30;;;;;;;13.79;100.00;100574.56;5111999;28;20031;-42
2022/09/09 06:37:58;;;;;;;13.98;4.25;;;;;;;13.82;100.00;100579.78;5113352;28;20031;-46
2022/09/09 06:40:24;;;;;;;19.25;4.30;;;;;;;13.81;100.00;100584.94;5112944;28;20039;-47
2022/09/09 06:42:49;;;;;;;13.07;3.88;;;;;;;13.81;100.00;100572.00;5112145;28;20467;-43
2022/09/09 06:45:14;;;;;;;15.68;4.63;;;;;;;13.86;100.00;100574.66;5110164;28;20387;-44
2022/09/09 06:47:40;;;;;;;14.35;4.28;;;;;;;13.93;100.00;100576.44;5100211;28;20028;-47
2022/09/09 06:50:07;;;;;;;16.73;4.72;;;;;;;13.95;100.00;100574.75;5098460;28;20130;-44
2022/09/09 06:52:33;;;;;;;15.68;4.18;;;;;;;13.93;100.00;100574.72;5100006;28;20050;-42
2022/09/09 06:54:58;;;;;;;15.65;3.95;;;;;;;13.92;100.00;100579.91;5091421;28;20036;-42
2022/09/09 06:57:24;;;;;;;16.48;4.38;;;;;;;13.94;100.00;100573.88;5091223;28;20035;-42
2022/09/09 06:59:49;;;;;;;13.40;4.50;;;;;;;14.03;100.00;100572.25;5092774;28;20372;-42
2022/09/09 07:02:14;;;;;;;13.13;4.68;;;;;;;14.13;100.00;100569.75;5091358;28;20016;-42
2022/09/09 07:04:40;;;;;;;14.50;5.07;;;;;;;14.22;100.00;100562.94;5095042;28;20027;-43
2022/09/09 07:07:05;;;;;;;15.43;4.47;;;;;;;14.35;100.00;100572.56;5104904;28;20106;-44
2022/09/09 07:09:31;;;;;;;16.90;4.55;;;;;;;14.43;100.00;100583.88;5099103;28;20016;-42
2022/09/09 07:11:59;;;;;;;13.13;4.07;;;;;;;14.50;100.00;100574.44;5095802;28;20472;-42
2022/09/09 07:14:24;;;;;;;18.05;4.32;;;;;;;14.58;100.00;100577.09;5095592;28;20062;-42
2022/09/09 07:16:49;;;;;;;12.75;3.58;;;;;;;14.57;100.00;100572.78;5094849;28;20085;-41
2022/09/09 07:19:15;;;;;;;17.40;4.68;;;;;;;14.65;100.00;100571.13;5098393;28;20110;-42
2022/09/09 07:21:41;;;;;;;14.57;4.30;;;;;;;14.74;100.00;100576.38;5095056;28;20020;-42
2022/09/09 07:24:10;;;;;;;13.30;3.58;;;;;;;14.80;100.00;100568.66;5091923;28;20020;-42
2022/09/09 07:26:36;;;;;;;14.43;3.50;;;;;;;14.89;100.00;100572.19;5101256;28;20039;-42
2022/09/09 07:29:02;;;;;;;12.27;3.38;;;;;;;14.98;100.00;100567.94;5106677;28;20020;-41
2022/09/09 07:31:34;;;;;;;10.70;3.22;;;;;;;15.12;100.00;100564.56;5094628;28;20092;-44
2022/09/09 07:33:59;;;;;;;14.75;3.55;;;;;;;15.34;100.00;100560.38;5099163;28;20474;-42
2022/09/09 07:36:30;;;;;;;15.75;3.60;;;;;;;15.54;99.92;100568.25;5096015;28;20127;-43
2022/09/09 07:38:58;;;;;;;11.85;2.92;;;;;;;15.50;97.37;100561.31;5097585;28;20069;-40
2022/09/09 07:41:27;;;;;;;12.10;3.00;;;;;;;15.47;98.19;100566.50;5102425;28;20020;-41
2022/09/09 07:43:53;;;;;;;12.25;2.92;;;;;;;15.40;96.49;100565.59;5112680;28;20062;-42
2022/09/09 07:46:21;;;;;;;12.65;3.10;;;;;;;15.33;97.89;100571.59;5113466;28;20032;-41
2022/09/09 07:48:51;;;;;;;9.40;2.80;;;;;;;15.35;98.45;100571.63;5115728;28;20051;-42
2022/09/09 07:51:18;;;;;;;12.82;3.15;;;;;;;15.36;97.93;100568.16;5096843;28;20028;-45
2022/09/09 07:53:44;;;;;;;13.02;3.05;;;;;;;15.35;96.85;100575.09;5094913;28;20031;-43
2022/09/09 07:56:11;;;;;;;17.33;3.30;;;;;;;15.37;97.21;100569.91;5094485;28;20036;-42
2022/09/09 07:58:37;;;;;;;;;;;;;;;15.44;98.13;100567.34;5094821;28;20024;-42
2022/09/09 08:01:11;;;;;;;10.55;3.08;;;;;;;15.44;97.67;100576.84;5095831;28;19916;-42
2022/09/09 08:03:37;;;;;;;17.77;3.97;;;;;;;15.48;96.94;100574.28;5100646;28;20019;-42
2022/09/09 08:06:06;;;;;;;11.82;3.38;;;;;;;15.63;97.39;100575.22;5103762;28;20039;-42
2022/09/09 08:08:31;;;;;;;9.75;3.13;;;;;;;15.68;94.83;100573.50;5115081;27;20470;-42
2022/09/09 08:11:09;;;;;;;12.13;2.97;;;;;;;15.74;94.21;100570.94;5107690;28;20057;-42
2022/09/09 08:13:36;;;;;;;11.43;2.45;;;;;;;15.76;93.34;100577.03;5093147;28;20540;-42
2022/09/09 08:16:06;;;;;;;11.68;3.22;;;;;;;15.82;94.09;100578.78;5094021;28;20031;-43
2022/09/09 08:18:32;;;;;;;14.68;3.25;;;;;;;15.80;92.53;100575.28;5098212;28;20032;-41
2022/09/09 08:20:57;;;;;;;9.73;2.78;;;;;;;15.80;94.21;100573.56;5099686;28;20039;-41
2022/09/09 08:23:23;;;;;;;12.13;2.88;;;;;;;15.86;93.49;100574.47;5101720;28;20506;-41
2022/09/09 08:25:48;;;;;;;13.82;3.45;;;;;;;15.90;92.67;100571.03;5098926;28;20035;-42
2022/09/09 08:28:14;;;;;;;9.10;2.42;;;;;;;15.99;92.38;100581.44;5094536;28;20456;-41
2022/09/09 08:30:39;;;;;;;13.95;3.03;;;;;;;16.07;92.49;100582.31;5103223;28;20024;-41
2022/09/09 08:33:05;;;;;;;12.88;2.80;;;;;;;16.18;92.47;100587.56;5097916;28;20031;-41
2022/09/09 08:35:32;;;;;;;13.50;3.15;;;;;;;16.18;89.95;100589.28;5099164;28;20078;-41
2022/09/09 08:37:57;;;;;;;14.88;3.20;;;;;;;16.19;89.03;100584.09;5098170;28;20036;-41
2022/09/09 08:40:29;;;;;;;11.88;2.75;;;;;;;16.19;88.55;100591.91;5109326;27;20091;-41
2022/09/09 08:42:59;;;;;;;9.25;2.45;;;;;;;16.18;88.73;100587.56;5098243;28;20035;-42
2022/09/09 08:45:34;;;;;;;13.05;3.38;;;;;;;16.19;88.03;100591.03;5114445;28;20027;-40
2022/09/09 08:48:03;;;;;;;11.18;3.00;;;;;;;16.22;88.46;100591.03;5104487;28;20024;-40
2022/09/09 08:50:33;;;;;;;9.60;2.67;;;;;;;16.20;89.19;100597.97;5093783;28;20534;-41
2022/09/09 08:53:07;;;;;;;12.48;2.70;;;;;;;16.15;89.15;100597.09;5092761;28;20436;-41
2022/09/09 08:55:49;;;;;;;10.77;2.78;;;;;;;16.07;89.57;100599.66;5100230;28;20081;-45
2022/09/09 08:58:23;;;;;;;8.18;2.42;;;;;;;16.01;88.74;100595.31;5099642;28;20479;-45
2022/09/09 09:00:59;;;;;;;14.55;2.90;;;;;;;15.99;89.57;100594.44;5106309;28;20403;-43
2022/09/09 09:03:50;;;;;;;10.50;2.92;;;;;;;16.07;89.32;100604.88;5108137;28;20028;-41
2022/09/09 09:06:30;;;;;;;15.48;3.20;;;;;;;16.09;89.69;100614.41;5113324;28;20034;-42
2022/09/09 09:09:01;;;;;;;12.20;3.28;;;;;;;16.15;89.15;100610.09;5098476;28;20053;-43
2022/09/09 09:11:27;;;;;;;11.23;2.65;;;;;;;16.16;87.51;100614.44;5101789;28;20380;-41
2022/09/09 09:13:59;;;;;;;15.30;2.67;;;;;;;16.24;88.59;100613.59;5093209;28;20460;-41
2022/09/09 09:16:34;;;;;;;11.38;2.63;;;;;;;16.21;87.81;100623.09;5093039;28;20039;-41
2022/09/09 09:19:00;;;;;;;10.25;3.08;;;;;;;16.19;87.65;100610.09;5092988;28;20050;-43
2022/09/09 09:21:39;;;;;;;13.35;2.60;;;;;;;16.23;87.85;100610.97;5095463;28;20479;-42
2022/09/09 09:24:14;;;;;;;13.27;2.70;;;;;;;16.29;87.06;100616.19;5107261;28;20024;-42
2022/09/09 09:26:42;;;;;;;11.88;2.63;;;;;;;16.45;86.69;100617.94;5099531;28;20088;-41
2022/09/09 09:29:16;;;;;;;12.85;2.70;;;;;;;16.42;85.48;100623.16;5101073;28;20042;-43
2022/09/09 09:31:45;;;;;;;16.10;2.63;;;;;;;16.37;86.04;100627.50;5095610;28;20024;-46
2022/09/09 09:34:12;;;;;;;12.55;2.90;;;;;;;16.25;85.61;100617.03;5097711;28;20459;-45
2022/09/09 09:36:44;;;;;;;12.05;3.35;;;;;;;16.20;87.38;100624.81;5110941;28;20364;-42
2022/09/09 09:39:10;;;;;;;10.50;2.38;;;;;;;16.22;86.95;100619.66;5093244;28;20027;-42
2022/09/09 09:41:41;;;;;;;9.45;2.15;;;;;;;16.31;86.63;100619.66;5095620;28;20065;-40
2022/09/09 09:44:23;;;;;;;11.48;3.15;;;;;;;16.50;86.90;100622.28;5092115;28;20052;-45
2022/09/09 09:46:48;;;;;;;8.95;2.50;;;;;;;16.56;85.42;100614.50;5092993;28;20027;-43
2022/09/09 09:49:13;;;;;;;11.20;2.72;;;;;;;16.63;85.12;100611.06;5093348;28;20036;-41
2022/09/09 09:51:40;;;;;;;13.25;3.28;;;;;;;16.58;84.74;100611.03;5109814;28;20027;-42
2022/09/09 09:54:30;;;;;;;10.73;2.80;;;;;;;16.49;88.20;100628.34;5112081;28;20110;-43
2022/09/09 09:56:55;;;;;;;9.25;3.20;;;;;;;16.15;90.27;100613.53;5104487;28;20142;-43
2022/09/09 09:59:23;;;;;;;11.02;2.75;;;;;;;15.96;91.89;100613.50;5094538;28;20106;-40
2022/09/09 10:01:49;;;;;;;14.52;3.25;;;;;;;15.94;94.33;100612.59;5104153;28;20015;-40
2022/09/09 10:04:18;;;;;;;12.15;3.20;;;;;;;15.85;92.09;100604.78;5099955;28;20015;-43
2022/09/09 10:06:43;;;;;;;10.27;2.70;;;;;;;15.78;92.12;100613.41;5097233;28;20032;-43
2022/09/09 10:09:25;;;;;;;13.13;3.17;;;;;;;15.68;93.48;100620.28;5105805;28;20030;-40
2022/09/09 10:12:12;;;;;;;10.35;3.10;;;;;;;15.45;97.49;100626.22;5102597;28;20072;-42
2022/09/09 10:14:55;;;;;;;10.07;3.05;;;;;;;15.34;99.12;100621.81;5094023;28;20454;-44
2022/09/09 10:17:30;;;;;;;11.68;3.20;;;;;;;15.26;99.58;100624.34;5096993;28;20368;-41
2022/09/09 10:20:33;;;;;;;10.38;3.20;;;;;;;15.26;100.00;100625.22;5098191;28;20527;-46
2022/09/09 10:23:36;;;;;;;13.68;3.67;;;;;;;15.26;100.00;100624.34;5096187;28;20068;-42
2022/09/09 10:26:19;;;;;;;13.23;3.30;;;;;;;15.38;100.00;100629.63;5094092;28;20086;-42
2022/09/09 10:28:47;;;;;;;12.90;3.50;;;;;;;15.54;100.00;100621.94;5092661;28;20032;-41
2022/09/09 10:31:22;;;;;;;11.57;3.28;;;;;;;15.63;100.00;100624.56;5098645;28;20031;-45
2022/09/09 10:34:01;;;;;;;11.25;3.70;;;;;;;15.65;100.00;100628.06;5110483;28;20383;-41
2022/09/09 10:36:28;;;;;;;13.20;3.58;;;;;;;15.58;100.00;100627.16;5112776;28;20036;-45
2022/09/09 10:39:30;;;;;;;12.57;2.95;;;;;;;15.51;99.75;100632.31;5115102;28;20104;-43
2022/09/09 10:42:08;;;;;;;12.50;3.10;;;;;;;15.38;100.00;100634.81;5107348;28;20024;-43
2022/09/09 10:44:47;;;;;;;10.77;3.22;;;;;;;15.41;100.00;100637.44;5096609;28;20395;-42
2022/09/09 10:47:38;;;;;;;14.65;3.28;;;;;;;15.44;100.00;100627.06;5105991;28;20035;-42
2022/09/09 10:50:25;;;;;;;13.70;3.78;;;;;;;15.46;100.00;100633.13;5108656;28;20045;-41
2022/09/09 10:53:24;;;;;;;9.48;3.17;;;;;;;15.50;100.00;100633.16;5108904;27;20032;-41
2022/09/09 10:55:59;;;;;;;12.15;3.15;;;;;;;15.46;100.00;100627.09;5105349;28;20114;-41
2022/09/09 10:58:34;;;;;;;10.15;2.95;;;;;;;15.51;100.00;100627.13;5103249;28;20036;-41
2022/09/09 11:01:09;;;;;;;11.40;2.75;;;;;;;15.61;99.51;100623.72;5095650;28;20024;-42
2022/09/09 11:03:40;;;;;;;11.05;2.90;;;;;;;15.72;98.71;100618.56;5095558;28;20031;-46
2022/09/09 11:06:12;;;;;;;11.73;3.20;;;;;;;15.72;99.54;100623.75;5097731;28;20028;-45
2022/09/09 11:08:38;;;;;;;11.88;3.30;;;;;;;15.80;100.00;100622.06;5102088;28;20027;-41
2022/09/09 11:11:17;;;;;;;11.35;3.13;;;;;;;15.71;100.00;100617.69;5115403;28;20038;-43
2022/09/09 11:13:52;;;;;;;13.88;3.30;;;;;;;15.62;99.49;100621.13;5098112;28;20410;-41
2022/09/09 11:16:42;;;;;;;7.00;2.65;;;;;;;15.54;100.00;100621.94;5100452;28;20059;-43
2022/09/09 11:19:34;;;;;;;11.02;3.22;;;;;;;15.60;100.00;100621.97;5102221;28;20035;-42
2022/09/09 11:22:02;;;;;;;8.70;3.40;;;;;;;15.62;100.00;100618.53;5111478;28;20047;-46
2022/09/09 11:24:41;;;;;;;9.48;2.67;;;;;;;15.69;100.00;100624.59;5105667;28;20020;-47
2022/09/09 11:27:18;;;;;;;8.68;3.13;;;;;;;15.93;100.00;100616.09;5107205;28;20055;-48
2022/09/09 11:29:57;;;;;;;8.43;3.15;;;;;;;15.95;99.61;100619.53;5100588;28;20085;-44
2022/09/09 11:32:34;;;;;;;8.23;2.90;;;;;;;16.08;100.00;100620.47;5109407;28;20089;-42